Laquey, Missouri
Current Conditions -  °F | °C
As of 7:58 AM on Monday 20 Oct 2014 (Local Time) from KTBN Reporting Station
Clear Clear  
Wind Chill: 54°   Ceiling: Unl
Heat Index: 54°   Visibility: 8mi
Dew Point: 52°   Wind: 5mph
Humidity: 92%   Direction: 230°SW
Pressure: 30.02"   Gusts: NA
Location:  37.77°N, 92.3°W
Report Text: KTBN 201258Z AUTO 23004KT 8SM CLR 12/11 A3002 RMK AO2 SLP168 T01210109
Loading
Personal Weather Stations






























Interactive Weather Map New forecast layout! Learn more

10-Day Weather Forecast

Advertisements
Track Severe Weather on mobile